Balmoral, Louisiana
Current Conditions -  °F | °C
As of 3:14 AM on Sunday 26 Oct 2014 (Local Time) from KTVR Reporting Station
Haze Haze  
Wind Chill: 54°   Ceiling: Unl
Heat Index: 54°   Visibility: 1.7mi
Dew Point: 53°   Wind: 0mph
Humidity: 97%   Direction: NA
Pressure: 30.04"   Gusts: NA
Location:  32.1015°N, 91.2929°W
Report Text: KTVR 260814Z AUTO 00000KT 1 3/4SM BR CLR 12/12 A3004 RMK AO2 T01220117
Loading
Personal Weather Stations






























Interactive Weather Map
Tropical Storm Tracking
New forecast layout! Learn more

10-Day Weather Forecast

Advertisements
Track Severe Weather on mobile